Pagina principale
METAR-TAF:

METAR-TAF

Aeroporti :

Limón, Costa Rica

latitudine: 10-00N, longitudine: 083-03W, altezza: 5 m

Osservazione

Il bollettino è stato emesso 56 minuti fa, alle 14:00 UTC
Vento 7 kt da ovest
Temperature 30°C
Umidità 75%
Pressione 1012 hPa
Visibilità 10 km o più
nessuna nube inferiore a 1500 m e nessun cumulonembo

METAR: MRLM 221400Z 28007KT CAVOK 30/25 A2988

Ora: 08:56 (14:56 UTC)

Previsione

Il bollettino è stato emesso 3 ore e 46 minuti fa, alle 11:10 UTC
Previsione valida dal 22 alle 12 UTC al 23 alle 12 UTC
Vento 6 kt da ovest
Visibilità 10 km o più
Poco nuvoloso ad un'altezza di 2000 ft
Evoluzione graduale
dal 22 alle 17 UTC al 22 alle 19 UTC
Vento 6 kt da nord-est
Evoluzione graduale
dal 23 alle 00 UTC al 23 alle 03 UTC
Vento 5 kt da ovest

TAF: MRLM 221110Z 2212/2312 28006KT 9999 FEW020 TX32/2221Z TN23/2311Z BECMG 2217/2219 05006KT BECMG 2300/2303 26005KT

Osservazioni e previsioni meteorologiche di più di 4000 aeroporti (messaggi METAR e TAF).

Le stazioni disponibili sono rappresentate dai dischi gialli e rossi sulla carta.

Puntare il mouse per vedere il nome della stazione.

Clicca sopra per visualizzare le osservazioni e previsioni meteorologiche.

Per cambiare la mappa : fare clic sui pulsanti verdi con una croce nera per ingrandire, il pulsante verde con un trattino per diminuire, o sulla freccia verde per le mappe adiacenti.


METAR-TAF: